createdAt,value
2022-12-11T00:02:08.501Z,98468.44
2022-12-11T00:04:43.123Z,98472.22
2022-12-11T00:07:17.302Z,98477.78
2022-12-11T00:09:53.161Z,98468.44
2022-12-11T00:12:27.338Z,98479.59
2022-12-11T00:15:01.731Z,98473.12
2022-12-11T00:17:38.163Z,98466.19
2022-12-11T00:20:13.110Z,98471.72
2022-12-11T00:22:47.190Z,98468.22
2022-12-11T00:25:23.043Z,98455.09
2022-12-11T00:27:57.481Z,98477.03
2022-12-11T00:30:31.937Z,98477.34
2022-12-11T00:33:06.131Z,98498.69
2022-12-11T00:35:41.040Z,98493.63
2022-12-11T00:38:17.147Z,98490.69
2022-12-11T00:40:53.224Z,98497.69
2022-12-11T00:43:27.387Z,98509.53
2022-12-11T00:46:02.492Z,98518.84
2022-12-11T00:48:37.145Z,98511.91
2022-12-11T00:51:12.172Z,98517.44
2022-12-11T00:53:46.391Z,98513.88
2022-12-11T00:56:24.606Z,98531.22
2022-12-11T00:58:58.783Z,98554.97
2022-12-11T01:01:33.546Z,98557.34
2022-12-11T01:04:07.798Z,98552.25
2022-12-11T01:06:42.281Z,98540.13
2022-12-11T01:09:34.157Z,98550.63
2022-12-11T01:12:09.967Z,98556.81
2022-12-11T01:14:44.223Z,98585.09
2022-12-11T01:17:18.616Z,98572.44
2022-12-11T01:19:54.977Z,98585.63
2022-12-11T01:22:29.450Z,98584.25
2022-12-11T01:25:03.568Z,98586.50
2022-12-11T01:27:40.488Z,98573.63
2022-12-11T01:30:15.436Z,98577.31
2022-12-11T01:32:50.555Z,98594.75
2022-12-11T01:35:24.986Z,98587.59
2022-12-11T01:37:59.414Z,98581.66
2022-12-11T01:40:33.947Z,98585.34
2022-12-11T01:43:12.760Z,98597.78
2022-12-11T01:45:49.316Z,98594.62
2022-12-11T01:48:27.276Z,98599.84
2022-12-11T01:51:03.851Z,98591.06
2022-12-11T01:53:41.832Z,98577.66
2022-12-11T01:56:16.282Z,98585.66
2022-12-11T01:58:56.312Z,98600.41
2022-12-11T02:01:36.143Z,98587.53
2022-12-11T02:04:12.267Z,98576.37
2022-12-11T02:06:49.339Z,98592.03
2022-12-11T02:09:27.470Z,98572.16
2022-12-11T02:12:08.097Z,98571.06
2022-12-11T02:14:48.704Z,98572.16
2022-12-11T02:17:27.220Z,98564.91
2022-12-11T02:20:09.550Z,98568.78
2022-12-11T02:23:18.184Z,98570.31
2022-12-11T02:25:58.645Z,98577.91
2022-12-11T02:28:36.455Z,98572.91
2022-12-11T02:31:15.469Z,98560.91
2022-12-11T02:33:56.326Z,98573.88
2022-12-11T02:36:35.008Z,98565.00
2022-12-11T02:39:13.533Z,98563.94
2022-12-11T02:41:51.202Z,98571.72
2022-12-11T02:44:31.658Z,98564.16
2022-12-11T02:47:09.565Z,98560.69
2022-12-11T02:49:46.857Z,98556.69
2022-12-11T02:52:25.296Z,98561.53
2022-12-11T02:55:02.138Z,98538.06
2022-12-11T02:57:44.112Z,98538.37
2022-12-11T03:00:20.963Z,98533.03
2022-12-11T03:02:55.422Z,98541.50
2022-12-11T03:05:31.101Z,98533.81
2022-12-11T03:08:05.678Z,98535.97
2022-12-11T03:10:40.553Z,98529.25
2022-12-11T03:13:18.864Z,98526.00
2022-12-11T03:16:05.648Z,98530.56
2022-12-11T03:18:47.910Z,98520.47
2022-12-11T03:21:28.320Z,98530.44
2022-12-11T03:24:06.965Z,98536.91
2022-12-11T03:26:54.476Z,98541.78
2022-12-11T03:29:38.050Z,98546.44
2022-12-11T03:32:20.035Z,98551.44
2022-12-11T03:34:58.647Z,98555.66
2022-12-11T03:37:37.665Z,98547.22
2022-12-11T03:40:16.058Z,98554.66
2022-12-11T03:42:53.359Z,98560.19
2022-12-11T03:45:30.866Z,98567.87
2022-12-11T03:48:08.386Z,98559.66
2022-12-11T03:50:43.871Z,98580.12
2022-12-11T03:53:22.625Z,98567.66
2022-12-11T03:55:59.386Z,98585.22
2022-12-11T03:58:35.833Z,98573.63
2022-12-11T04:01:11.106Z,98577.72
2022-12-11T04:03:46.879Z,98580.00
2022-12-11T04:06:21.189Z,98580.75
2022-12-11T04:08:55.623Z,98581.63
2022-12-11T04:11:35.684Z,98582.50
2022-12-11T04:14:29.787Z,98592.47
2022-12-11T04:17:03.836Z,98594.09
2022-12-11T04:20:09.093Z,98591.06
2022-12-11T04:23:01.007Z,98607.72
2022-12-11T04:25:35.434Z,98615.63
2022-12-11T04:28:09.900Z,98614.75
2022-12-11T04:30:50.457Z,98616.94
2022-12-11T04:33:24.626Z,98627.75
2022-12-11T04:36:01.346Z,98629.37
2022-12-11T04:38:35.482Z,98646.28
2022-12-11T04:41:12.490Z,98637.19
2022-12-11T04:43:46.619Z,98639.78
2022-12-11T04:46:25.356Z,98638.16
2022-12-11T04:49:00.391Z,98640.22
2022-12-11T04:51:36.146Z,98656.16
2022-12-11T04:54:10.415Z,98664.25
2022-12-11T04:56:44.885Z,98644.56
2022-12-11T04:59:18.966Z,98647.38
2022-12-11T05:01:53.361Z,98649.97
2022-12-11T05:04:27.620Z,98640.97
2022-12-11T05:07:03.832Z,98656.03
2022-12-11T05:09:38.377Z,98636.09
2022-12-11T05:12:12.840Z,98641.28
2022-12-11T05:14:47.247Z,98637.94
2022-12-11T05:17:22.761Z,98646.06
2022-12-11T05:19:56.946Z,98626.25
2022-12-11T05:22:33.132Z,98643.03
2022-12-11T05:25:08.532Z,98626.91
2022-12-11T05:27:43.370Z,98634.91
2022-12-11T05:30:17.660Z,98623.31
2022-12-11T05:32:52.135Z,98641.72
2022-12-11T05:35:26.271Z,98629.28
2022-12-11T05:38:02.203Z,98637.72
2022-12-11T05:40:36.384Z,98674.13
2022-12-11T05:43:10.924Z,98668.38
2022-12-11T05:45:45.113Z,98671.75
2022-12-11T05:48:19.594Z,98688.53
2022-12-11T05:51:00.718Z,98670.44
2022-12-11T05:53:38.394Z,98661.00
2022-12-11T05:56:14.140Z,98668.16
2022-12-11T05:58:49.847Z,98676.94
2022-12-11T06:01:26.055Z,98663.41
2022-12-11T06:04:01.383Z,98651.47
2022-12-11T06:06:35.948Z,98671.62
2022-12-11T06:09:15.008Z,98668.06
2022-12-11T06:11:49.197Z,98683.13
2022-12-11T06:14:23.598Z,98671.62
2022-12-11T06:16:57.742Z,98686.78
2022-12-11T06:19:36.771Z,98692.09
2022-12-11T06:22:11.286Z,98689.63
2022-12-11T06:24:48.187Z,98664.16
2022-12-11T06:27:22.443Z,98679.00
2022-12-11T06:29:57.353Z,98697.87
2022-12-11T06:32:31.498Z,98699.44
2022-12-11T06:35:09.330Z,98714.09
2022-12-11T06:37:43.692Z,98710.94
2022-12-11T06:40:19.999Z,98727.75
2022-12-11T06:42:55.423Z,98730.34
2022-12-11T06:45:29.904Z,98733.94
2022-12-11T06:48:06.620Z,98742.16
2022-12-11T06:50:41.054Z,98744.00
2022-12-11T06:53:17.647Z,98758.09
2022-12-11T06:55:53.511Z,98751.59
2022-12-11T06:58:27.678Z,98750.81
2022-12-11T07:01:02.228Z,98744.00
2022-12-11T07:03:36.812Z,98774.13
2022-12-11T07:06:11.546Z,98767.50
2022-12-11T07:08:46.197Z,98777.16
2022-12-11T07:11:22.916Z,98784.72
2022-12-11T07:14:00.680Z,98787.88
2022-12-11T07:16:35.156Z,98794.38
2022-12-11T07:19:11.276Z,98789.59
2022-12-11T07:21:45.771Z,98802.19
2022-12-11T07:24:20.396Z,98817.56
2022-12-11T07:26:56.442Z,98820.94
2022-12-11T07:29:30.577Z,98828.75
2022-12-11T07:32:05.553Z,98815.25
2022-12-11T07:34:40.181Z,98825.88
2022-12-11T07:37:14.646Z,98823.19
2022-12-11T07:39:51.441Z,98819.47
2022-12-11T07:42:27.270Z,98835.66
2022-12-11T07:45:01.543Z,98842.28
2022-12-11T07:47:36.356Z,98831.22
2022-12-11T07:50:13.529Z,98839.78
2022-12-11T07:52:47.976Z,98845.66
2022-12-11T07:55:22.448Z,98841.75
2022-12-11T07:57:58.304Z,98852.69
2022-12-11T08:00:32.975Z,98846.31
2022-12-11T08:03:07.429Z,98856.06
2022-12-11T08:05:47.791Z,98843.91
2022-12-11T08:08:22.469Z,98846.38
2022-12-11T08:10:56.686Z,98875.59
2022-12-11T08:13:33.630Z,98869.72
2022-12-11T08:16:10.160Z,98882.97
2022-12-11T08:18:45.578Z,98875.59
2022-12-11T08:21:22.160Z,98869.06
2022-12-11T08:23:57.239Z,98864.19
2022-12-11T08:26:32.997Z,98856.50
2022-12-11T08:29:09.039Z,98864.31
2022-12-11T08:31:43.698Z,98876.03
2022-12-11T08:34:18.755Z,98864.84
2022-12-11T08:36:54.062Z,98884.69
2022-12-11T08:39:28.518Z,98878.50
2022-12-11T08:42:02.966Z,98876.56
2022-12-11T08:44:38.799Z,98885.22
2022-12-11T08:47:13.085Z,98878.25
2022-12-11T08:49:47.511Z,98900.22
2022-12-11T08:52:21.690Z,98889.16
2022-12-11T08:54:56.376Z,98894.25
2022-12-11T08:57:30.698Z,98888.37
2022-12-11T09:00:10.179Z,98878.72
2022-12-11T09:02:44.553Z,98879.47
2022-12-11T09:05:19.255Z,98884.47
2022-12-11T09:07:53.531Z,98894.22
2022-12-11T09:10:28.426Z,98888.91
2022-12-11T09:13:02.703Z,98889.34
2022-12-11T09:15:42.190Z,98884.78
2022-12-11T09:18:16.456Z,98891.53
2022-12-11T09:20:59.689Z,98902.16
2022-12-11T09:23:34.292Z,98905.19
2022-12-11T09:26:11.117Z,98918.75
2022-12-11T09:28:47.020Z,98908.63
2022-12-11T09:31:27.156Z,98918.75
2022-12-11T09:34:02.851Z,98907.25
2022-12-11T09:36:39.353Z,98916.91
2022-12-11T09:39:14.973Z,98918.87
2022-12-11T09:41:56.785Z,98915.94
2022-12-11T09:44:39.471Z,98924.50
2022-12-11T09:47:29.082Z,98922.22
2022-12-11T09:50:14.216Z,98925.81
2022-12-11T09:53:04.443Z,98936.78
2022-12-11T09:55:50.465Z,98921.47
2022-12-11T09:58:33.631Z,98938.28
2022-12-11T10:01:16.160Z,98929.59
2022-12-11T10:04:11.899Z,98910.50
2022-12-11T10:06:51.876Z,98912.47
2022-12-11T10:09:38.562Z,98925.16
2022-12-11T10:12:38.393Z,98928.31
2022-12-11T10:15:30.158Z,98928.84
2022-12-11T10:18:07.783Z,98949.34
2022-12-11T10:20:45.217Z,98945.66
2022-12-11T10:23:22.786Z,98933.84
2022-12-11T10:26:05.006Z,98937.19
2022-12-11T10:28:39.320Z,98940.47
2022-12-11T10:31:19.480Z,98928.75
2022-12-11T10:34:01.324Z,98929.81
2022-12-11T10:36:38.948Z,98924.41
2022-12-11T10:39:15.503Z,98935.63
2022-12-11T10:41:51.843Z,98939.91
2022-12-11T10:44:27.637Z,98924.44
2022-12-11T10:47:08.429Z,98928.22
2022-12-11T10:49:44.975Z,98914.78
2022-12-11T10:52:24.434Z,98930.59
2022-12-11T10:55:03.675Z,98926.06
2022-12-11T10:57:40.492Z,98926.50
2022-12-11T11:00:37.763Z,98904.41
2022-12-11T11:03:23.833Z,98930.94
2022-12-11T11:06:05.101Z,98932.22
2022-12-11T11:08:44.230Z,98936.75
2022-12-11T11:11:26.309Z,98927.97
2022-12-11T11:14:15.925Z,98928.41
2022-12-11T11:16:51.928Z,98930.22
2022-12-11T11:19:30.804Z,98940.59
2022-12-11T11:22:08.483Z,98940.25
2022-12-11T11:24:48.453Z,98939.28
2022-12-11T11:31:00.408Z,98932.97
2022-12-11T11:33:37.987Z,98942.44
2022-12-11T11:36:22.225Z,98946.50
2022-12-11T11:39:20.374Z,98963.09
2022-12-11T11:42:04.113Z,98957.66
2022-12-11T11:44:44.721Z,98961.84
2022-12-11T11:47:23.273Z,98968.53
2022-12-11T11:50:04.235Z,98974.63
2022-12-11T11:52:45.485Z,98987.28
2022-12-11T11:55:29.906Z,98991.97
2022-12-11T11:58:11.190Z,98996.22
2022-12-11T12:00:45.737Z,99002.50
2022-12-11T12:03:24.494Z,98992.19
2022-12-11T12:06:15.078Z,99000.56
2022-12-11T12:09:03.723Z,98985.13
2022-12-11T12:11:45.931Z,98989.50
2022-12-11T12:17:28.053Z,98988.28
2022-12-11T12:20:18.183Z,98984.59
2022-12-11T12:23:03.519Z,98999.25
2022-12-11T12:25:42.806Z,98993.75
2022-12-11T12:28:25.305Z,98995.25
2022-12-11T12:31:14.982Z,98988.19
2022-12-11T12:34:04.090Z,99001.00
2022-12-11T12:36:47.598Z,99000.44
2022-12-11T12:42:58.219Z,99009.34
2022-12-11T12:45:41.347Z,99013.72
2022-12-11T12:48:17.940Z,99019.47
2022-12-11T12:50:52.912Z,99025.75
2022-12-11T12:53:32.599Z,99029.47
2022-12-11T12:56:08.430Z,99034.22
2022-12-11T12:58:44.927Z,99043.03
2022-12-11T13:01:21.921Z,99052.47
2022-12-11T13:04:01.817Z,99061.81
2022-12-11T13:06:39.807Z,99067.22
2022-12-11T13:09:19.840Z,99071.34
2022-12-11T13:11:57.931Z,99076.66
2022-12-11T13:14:33.906Z,99067.88
2022-12-11T13:17:27.675Z,99077.13
2022-12-11T13:20:16.626Z,99074.28
2022-12-11T13:22:55.883Z,99077.00
2022-12-11T13:25:35.194Z,99070.47
2022-12-11T13:28:24.960Z,99075.47
2022-12-11T13:31:02.764Z,99065.38
2022-12-11T13:33:44.440Z,99069.28
2022-12-11T13:36:31.569Z,99076.75
2022-12-11T13:39:10.973Z,99081.88
2022-12-11T13:41:48.575Z,99081.88
2022-12-11T13:44:28.700Z,99099.78
2022-12-11T13:47:05.156Z,99097.59
2022-12-11T13:49:44.306Z,99095.84
2022-12-11T13:52:22.510Z,99100.22
2022-12-11T13:54:59.814Z,99110.06
2022-12-11T13:57:34.035Z,99106.91
2022-12-11T14:00:22.838Z,99099.81
2022-12-11T14:03:00.605Z,99108.19
2022-12-11T14:05:35.841Z,99110.91
2022-12-11T14:08:13.595Z,99112.31
2022-12-11T14:10:53.606Z,99107.34
2022-12-11T14:13:34.066Z,99107.72
2022-12-11T14:16:09.041Z,99118.25
2022-12-11T14:18:44.140Z,99119.53
2022-12-11T14:21:21.111Z,99132.34
2022-12-11T14:23:58.775Z,99126.09
2022-12-11T14:26:35.340Z,99125.84
2022-12-11T14:29:25.984Z,99139.03
2022-12-11T14:32:03.765Z,99147.03
2022-12-11T14:34:43.634Z,99142.03
2022-12-11T14:37:22.105Z,99140.34
2022-12-11T14:40:02.493Z,99161.22
2022-12-11T14:42:42.236Z,99152.91
2022-12-11T14:45:22.056Z,99158.00
2022-12-11T14:47:57.839Z,99159.72
2022-12-11T14:50:39.896Z,99159.03
2022-12-11T14:53:20.417Z,99167.25
2022-12-11T14:55:56.932Z,99163.19
2022-12-11T14:58:32.389Z,99164.88
2022-12-11T15:01:09.208Z,99167.00
2022-12-11T15:03:43.936Z,99163.19
2022-12-11T15:06:27.126Z,99166.31
2022-12-11T15:09:11.637Z,99171.25
2022-12-11T15:11:50.104Z,99165.84
2022-12-11T15:14:25.635Z,99171.72
2022-12-11T15:17:00.379Z,99174.72
2022-12-11T15:19:37.833Z,99185.13
2022-12-11T15:22:17.782Z,99190.03
2022-12-11T15:24:54.008Z,99184.81
2022-12-11T15:27:35.659Z,99190.03
2022-12-11T15:30:32.681Z,99180.94
2022-12-11T15:33:22.327Z,99192.09
2022-12-11T15:36:02.847Z,99192.53
2022-12-11T15:38:40.743Z,99192.19
2022-12-11T15:41:17.957Z,99193.53
2022-12-11T15:43:58.958Z,99192.09
2022-12-11T15:46:38.174Z,99211.16
2022-12-11T15:49:13.759Z,99210.03
2022-12-11T15:51:47.930Z,99217.50
2022-12-11T15:54:22.527Z,99225.13
2022-12-11T15:56:56.839Z,99222.56
2022-12-11T15:59:33.992Z,99223.16
2022-12-11T16:02:12.525Z,99226.88
2022-12-11T16:04:46.975Z,99235.16
2022-12-11T16:07:22.722Z,99238.22
2022-12-11T16:09:57.696Z,99251.50
2022-12-11T16:12:33.669Z,99235.59
2022-12-11T16:15:11.183Z,99228.78
2022-12-11T16:17:45.678Z,99239.00
2022-12-11T16:20:20.704Z,99244.22
2022-12-11T16:22:54.976Z,99242.78
2022-12-11T16:25:29.926Z,99251.72
2022-12-11T16:28:06.636Z,99250.28
2022-12-11T16:30:43.661Z,99239.75
2022-12-11T16:33:18.007Z,99234.69
2022-12-11T16:35:52.657Z,99240.34
2022-12-11T16:38:28.902Z,99239.69
2022-12-11T16:41:03.754Z,99241.69
2022-12-11T16:43:38.371Z,99236.56
2022-12-11T16:46:18.961Z,99237.25
2022-12-11T16:48:53.168Z,99239.13
2022-12-11T16:51:29.581Z,99236.34
2022-12-11T16:54:04.195Z,99248.78
2022-12-11T16:56:38.956Z,99242.72
2022-12-11T16:59:13.547Z,99247.25
2022-12-11T17:01:51.294Z,99245.31
2022-12-11T17:04:25.540Z,99243.38
2022-12-11T17:07:00.039Z,99232.19
2022-12-11T17:09:35.306Z,99217.69
2022-12-11T17:12:10.319Z,99212.69
2022-12-11T17:14:44.898Z,99218.66
2022-12-11T17:17:21.306Z,99223.31
2022-12-11T17:19:55.825Z,99236.84
2022-12-11T17:22:30.463Z,99238.91
2022-12-11T17:25:05.245Z,99237.25
2022-12-11T17:27:39.951Z,99239.53
2022-12-11T17:30:16.635Z,99246.41
2022-12-11T17:32:55.502Z,99247.37
2022-12-11T17:35:29.837Z,99253.13
2022-12-11T17:38:04.294Z,99251.69
2022-12-11T17:40:41.898Z,99256.00
2022-12-11T17:43:17.189Z,99253.34
2022-12-11T17:45:53.399Z,99259.09
2022-12-11T17:48:29.875Z,99254.50
2022-12-11T17:51:05.522Z,99254.56
2022-12-11T17:53:40.907Z,99257.97
2022-12-11T17:56:15.136Z,99265.31
2022-12-11T17:58:49.690Z,99262.41
2022-12-11T18:01:23.914Z,99274.44
2022-12-11T18:04:01.521Z,99259.16
2022-12-11T18:06:36.717Z,99264.56
2022-12-11T18:09:13.567Z,99280.69
2022-12-11T18:11:48.087Z,99280.12
2022-12-11T18:14:24.014Z,99278.06
2022-12-11T18:16:58.391Z,99285.41
2022-12-11T18:19:34.247Z,99291.09
2022-12-11T18:22:08.810Z,99287.00
2022-12-11T18:24:43.298Z,99315.44
2022-12-11T18:27:17.537Z,99314.25
2022-12-11T18:29:53.654Z,99306.25
2022-12-11T18:32:29.009Z,99315.44
2022-12-11T18:35:05.956Z,99323.25
2022-12-11T18:37:41.326Z,99326.19
2022-12-11T18:40:16.268Z,99330.37
2022-12-11T18:42:51.071Z,99330.91
2022-12-11T18:45:25.923Z,99336.88
2022-12-11T18:48:00.516Z,99342.78
2022-12-11T18:50:37.207Z,99342.19
2022-12-11T18:53:11.901Z,99331.72
2022-12-11T18:55:49.258Z,99332.91
2022-12-11T18:58:23.926Z,99326.38
2022-12-11T19:00:58.698Z,99332.06
2022-12-11T19:03:33.161Z,99330.25
2022-12-11T19:06:11.004Z,99330.50
2022-12-11T19:08:46.080Z,99340.19
2022-12-11T19:11:24.701Z,99353.75
2022-12-11T19:14:00.391Z,99339.03
2022-12-11T19:16:37.341Z,99350.88
2022-12-11T19:19:14.171Z,99352.19
2022-12-11T19:21:51.596Z,99344.94
2022-12-11T19:24:26.367Z,99354.00
2022-12-11T19:27:01.659Z,99358.31
2022-12-11T19:29:36.278Z,99363.19
2022-12-11T19:32:11.012Z,99366.19
2022-12-11T19:34:46.473Z,99361.13
2022-12-11T19:37:22.944Z,99366.94
2022-12-11T19:39:57.993Z,99371.22
2022-12-11T19:42:32.810Z,99368.37
2022-12-11T19:45:08.508Z,99373.47
2022-12-11T19:47:43.244Z,99383.56
2022-12-11T19:50:17.824Z,99388.84
2022-12-11T19:52:53.948Z,99401.94
2022-12-11T19:55:31.677Z,99402.00
2022-12-11T19:58:06.762Z,99387.88
2022-12-11T20:00:41.162Z,99380.50
2022-12-11T20:03:16.160Z,99375.87
2022-12-11T20:05:50.781Z,99385.72
2022-12-11T20:08:44.199Z,99397.94
2022-12-11T20:11:19.895Z,99386.13
2022-12-11T20:13:55.623Z,99369.88
2022-12-11T20:17:01.749Z,99382.88
2022-12-11T20:19:24.918Z,99383.06
2022-12-11T20:21:59.615Z,99395.28
2022-12-11T20:24:36.653Z,99396.19
2022-12-11T20:27:12.491Z,99394.22
2022-12-11T20:29:48.020Z,99393.69
2022-12-11T20:32:22.239Z,99390.34
2022-12-11T20:34:57.479Z,99390.00
2022-12-11T20:37:32.071Z,99396.75
2022-12-11T20:40:10.347Z,99390.72
2022-12-11T20:42:44.519Z,99397.19
2022-12-11T20:45:19.812Z,99406.28
2022-12-11T20:47:54.168Z,99401.78
2022-12-11T20:50:29.944Z,99398.34
2022-12-11T20:53:04.541Z,99399.78
2022-12-11T20:55:42.197Z,99402.22
2022-12-11T20:58:16.403Z,99397.97
2022-12-11T21:00:51.790Z,99400.78
2022-12-11T21:03:26.711Z,99401.69
2022-12-11T21:06:01.636Z,99393.09
2022-12-11T21:08:35.890Z,99396.28
2022-12-11T21:11:11.983Z,99400.03
2022-12-11T21:13:46.185Z,99401.97
2022-12-11T21:16:21.450Z,99397.66
2022-12-11T21:18:56.779Z,99411.28
2022-12-11T21:21:33.107Z,99412.81
2022-12-11T21:24:08.740Z,99418.50
2022-12-11T21:26:44.688Z,99423.28
2022-12-11T21:29:19.030Z,99414.69
2022-12-11T21:31:54.325Z,99415.81
2022-12-11T21:34:29.076Z,99424.00
2022-12-11T21:37:07.582Z,99424.66
2022-12-11T21:39:41.772Z,99424.69
2022-12-11T21:42:17.844Z,99417.72
2022-12-11T21:47:47.245Z,99433.81
2022-12-11T21:50:21.563Z,99436.16
2022-12-11T21:52:57.098Z,99436.19
2022-12-11T21:55:31.238Z,99427.59
2022-12-11T21:58:07.597Z,99436.78
2022-12-11T22:00:42.090Z,99448.41
2022-12-11T22:03:16.734Z,99440.38
2022-12-11T22:05:51.013Z,99449.69
2022-12-11T22:08:25.934Z,99452.72
2022-12-11T22:11:01.109Z,99454.56
2022-12-11T22:13:36.969Z,99456.22
2022-12-11T22:16:11.159Z,99468.22
2022-12-11T22:18:46.173Z,99469.78
2022-12-11T22:21:20.612Z,99460.00
2022-12-11T22:23:55.297Z,99456.50
2022-12-11T22:26:30.218Z,99460.25
2022-12-11T22:29:06.490Z,99452.13
2022-12-11T22:31:40.755Z,99445.50
2022-12-11T22:34:15.388Z,99444.13
2022-12-11T22:36:49.614Z,99448.47
2022-12-11T22:39:24.529Z,99439.22
2022-12-11T22:41:59.723Z,99444.16
2022-12-11T22:44:35.527Z,99454.22
2022-12-11T22:47:09.689Z,99451.91
2022-12-11T22:49:44.200Z,99447.81
2022-12-11T22:52:18.664Z,99443.81
2022-12-11T22:54:53.566Z,99447.78
2022-12-11T22:57:27.967Z,99453.16
2022-12-11T23:00:05.078Z,99450.03
2022-12-11T23:02:39.909Z,99454.69
2022-12-11T23:05:14.978Z,99459.25
2022-12-11T23:07:50.048Z,99467.13
2022-12-11T23:10:25.518Z,99459.28
2022-12-11T23:12:59.625Z,99452.41
2022-12-11T23:15:35.809Z,99457.75
2022-12-11T23:18:10.107Z,99449.28
2022-12-11T23:20:44.584Z,99451.47
2022-12-11T23:23:18.900Z,99449.12
2022-12-11T23:25:53.551Z,99447.56
2022-12-11T23:28:27.734Z,99445.97
2022-12-11T23:31:04.057Z,99457.09
2022-12-11T23:33:38.565Z,99455.59
2022-12-11T23:36:13.911Z,99458.53
2022-12-11T23:38:54.152Z,99448.31
2022-12-11T23:41:30.005Z,99458.50
2022-12-11T23:44:04.549Z,99463.16
2022-12-11T23:46:42.685Z,99456.56
2022-12-11T23:49:16.887Z,99471.78
2022-12-11T23:51:52.310Z,99468.63
2022-12-11T23:54:26.435Z,99481.69
2022-12-11T23:57:01.165Z,99475.63
2022-12-11T23:59:35.423Z,99468.66
